createdAt,value
2022-09-23T00:00:12.303Z,1017.62
2022-09-23T00:01:12.392Z,1017.61
2022-09-23T00:02:12.363Z,1017.60
2022-09-23T00:03:12.266Z,1017.59
2022-09-23T00:04:12.266Z,1017.58
2022-09-23T00:05:12.244Z,1017.58
2022-09-23T00:06:12.243Z,1017.58
2022-09-23T00:07:12.247Z,1017.57
2022-09-23T00:08:12.226Z,1017.56
2022-09-23T00:09:12.213Z,1017.56
2022-09-23T00:10:12.211Z,1017.55
2022-09-23T00:11:12.186Z,1017.54
2022-09-23T00:12:12.223Z,1017.53
2022-09-23T00:13:12.169Z,1017.52
2022-09-23T00:14:12.181Z,1017.49
2022-09-23T00:15:12.148Z,1017.48
2022-09-23T00:16:12.148Z,1017.46
2022-09-23T00:17:12.183Z,1017.45
2022-09-23T00:18:12.133Z,1017.44
2022-09-23T00:19:12.109Z,1017.43
2022-09-23T00:20:12.099Z,1017.42
2022-09-23T00:21:12.088Z,1017.42
2022-09-23T00:22:12.094Z,1017.41
2022-09-23T00:23:12.065Z,1017.40
2022-09-23T00:24:12.052Z,1017.39
2022-09-23T00:25:12.048Z,1017.38
2022-09-23T00:26:12.046Z,1017.38
2022-09-23T00:27:12.050Z,1017.38
2022-09-23T00:28:12.028Z,1017.38
2022-09-23T00:29:12.005Z,1017.38
2022-09-23T00:30:12.011Z,1017.37
2022-09-23T00:31:12.047Z,1017.37
2022-09-23T00:32:11.987Z,1017.35
2022-09-23T00:33:11.967Z,1017.34
2022-09-23T00:34:11.942Z,1017.33
2022-09-23T00:35:11.944Z,1017.32
2022-09-23T00:36:11.927Z,1017.31
2022-09-23T00:37:11.939Z,1017.30
2022-09-23T00:38:11.921Z,1017.29
2022-09-23T00:39:11.898Z,1017.28
2022-09-23T00:40:11.970Z,1017.28
2022-09-23T00:41:11.896Z,1017.27
2022-09-23T00:42:11.892Z,1017.26
2022-09-23T00:43:11.872Z,1017.24
2022-09-23T00:44:11.844Z,1017.24
2022-09-23T00:45:11.850Z,1017.24
2022-09-23T00:46:11.863Z,1017.23
2022-09-23T00:47:11.825Z,1017.23
2022-09-23T00:48:11.811Z,1017.23
2022-09-23T00:49:11.804Z,1017.22
2022-09-23T00:50:11.848Z,1017.21
2022-09-23T00:51:11.791Z,1017.21
2022-09-23T00:52:11.764Z,1017.21
2022-09-23T00:53:11.795Z,1017.21
2022-09-23T00:54:11.743Z,1017.22
2022-09-23T00:55:11.749Z,1017.22
2022-09-23T00:56:11.741Z,1017.20
2022-09-23T00:57:11.733Z,1017.19
2022-09-23T00:58:11.718Z,1017.18
2022-09-23T00:59:11.707Z,1017.17
2022-09-23T01:00:11.687Z,1017.17
2022-09-23T01:01:11.761Z,1017.15
2022-09-23T01:02:11.707Z,1017.14
2022-09-23T01:03:11.693Z,1017.12
2022-09-23T01:04:11.644Z,1017.10
2022-09-23T01:05:11.635Z,1017.09
2022-09-23T01:06:11.684Z,1017.08
2022-09-23T01:07:11.623Z,1017.05
2022-09-23T01:08:11.609Z,1017.04
2022-09-23T01:09:11.648Z,1017.06
2022-09-23T01:10:11.580Z,1017.05
2022-09-23T01:11:11.630Z,1017.04
2022-09-23T01:12:11.556Z,1017.04
2022-09-23T01:13:11.693Z,1017.03
2022-09-23T01:14:11.702Z,1017.02
2022-09-23T01:15:11.543Z,1017.01
2022-09-23T01:16:11.572Z,1016.99
2022-09-23T01:17:11.518Z,1016.97
2022-09-23T01:18:11.703Z,1016.96
2022-09-23T01:19:11.504Z,1016.95
2022-09-23T01:20:11.651Z,1016.95
2022-09-23T01:21:11.483Z,1016.94
2022-09-23T01:22:11.539Z,1016.93
2022-09-23T01:23:11.645Z,1016.92
2022-09-23T01:24:11.446Z,1016.91
2022-09-23T01:25:11.442Z,1016.90
2022-09-23T01:26:11.717Z,1016.89
2022-09-23T01:27:11.420Z,1016.89
2022-09-23T01:28:11.409Z,1016.90
2022-09-23T01:29:11.690Z,1016.90
2022-09-23T01:30:11.396Z,1016.89
2022-09-23T01:31:11.707Z,1016.89
2022-09-23T01:32:11.355Z,1016.88
2022-09-23T01:33:11.341Z,1016.88
2022-09-23T01:34:11.333Z,1016.87
2022-09-23T01:35:11.634Z,1016.86
2022-09-23T01:36:11.359Z,1016.86
2022-09-23T01:37:11.301Z,1016.86
2022-09-23T01:38:11.292Z,1016.87
2022-09-23T01:39:11.284Z,1016.88
2022-09-23T01:40:11.698Z,1016.89
2022-09-23T01:41:11.627Z,1016.89
2022-09-23T01:42:11.339Z,1016.88
2022-09-23T01:43:11.638Z,1016.88
2022-09-23T01:44:11.249Z,1016.89
2022-09-23T01:45:11.628Z,1016.89
2022-09-23T01:46:11.215Z,1016.89
2022-09-23T01:47:11.203Z,1016.89
2022-09-23T01:48:11.216Z,1016.89
2022-09-23T01:49:11.212Z,1016.88
2022-09-23T01:50:11.184Z,1016.87
2022-09-23T01:51:11.158Z,1016.86
2022-09-23T01:52:11.162Z,1016.85
2022-09-23T01:53:11.143Z,1016.84
2022-09-23T01:54:11.128Z,1016.84
2022-09-23T01:55:11.142Z,1016.83
2022-09-23T01:56:11.115Z,1016.83
2022-09-23T01:57:11.101Z,1016.82
2022-09-23T01:58:11.081Z,1016.81
2022-09-23T01:59:11.076Z,1016.81
2022-09-23T02:00:11.138Z,1016.80
2022-09-23T02:01:11.103Z,1016.81
2022-09-23T02:02:11.120Z,1016.81
2022-09-23T02:03:11.056Z,1016.82
2022-09-23T02:04:11.061Z,1016.82
2022-09-23T02:05:11.032Z,1016.82
2022-09-23T02:06:11.015Z,1016.82
2022-09-23T02:07:11.000Z,1016.81
2022-09-23T02:08:11.045Z,1016.80
2022-09-23T02:09:10.976Z,1016.79
2022-09-23T02:10:11.055Z,1016.78
2022-09-23T02:11:11.060Z,1016.76
2022-09-23T02:12:10.977Z,1016.76
2022-09-23T02:13:10.937Z,1016.75
2022-09-23T02:14:10.918Z,1016.74
2022-09-23T02:15:11.029Z,1016.73
2022-09-23T02:16:10.963Z,1016.71
2022-09-23T02:17:10.996Z,1016.70
2022-09-23T02:18:11.009Z,1016.70
2022-09-23T02:19:10.938Z,1016.69
2022-09-23T02:20:10.881Z,1016.68
2022-09-23T02:21:10.896Z,1016.68
2022-09-23T02:22:10.840Z,1016.68
2022-09-23T02:23:10.830Z,1016.68
2022-09-23T02:24:10.825Z,1016.67
2022-09-23T02:25:10.863Z,1016.65
2022-09-23T02:26:10.929Z,1016.63
2022-09-23T02:27:10.939Z,1016.60
2022-09-23T02:28:10.802Z,1016.58
2022-09-23T02:29:10.862Z,1016.57
2022-09-23T02:30:10.776Z,1016.55
2022-09-23T02:31:10.757Z,1016.55
2022-09-23T02:32:10.790Z,1016.54
2022-09-23T02:33:10.731Z,1016.54
2022-09-23T02:34:10.855Z,1016.53
2022-09-23T02:35:10.723Z,1016.53
2022-09-23T02:36:10.693Z,1016.52
2022-09-23T02:37:10.723Z,1016.51
2022-09-23T02:38:10.675Z,1016.50
2022-09-23T02:39:10.672Z,1016.48
2022-09-23T02:40:10.760Z,1016.47
2022-09-23T02:41:10.679Z,1016.46
2022-09-23T02:42:10.636Z,1016.44
2022-09-23T02:43:10.700Z,1016.43
2022-09-23T02:44:10.703Z,1016.43
2022-09-23T02:45:10.645Z,1016.41
2022-09-23T02:46:10.646Z,1016.43
2022-09-23T02:47:10.599Z,1016.42
2022-09-23T02:48:10.644Z,1016.42
2022-09-23T02:49:10.572Z,1016.42
2022-09-23T02:50:10.569Z,1016.42
2022-09-23T02:51:10.563Z,1016.42
2022-09-23T02:52:10.533Z,1016.41
2022-09-23T02:53:10.524Z,1016.39
2022-09-23T02:54:10.510Z,1016.38
2022-09-23T02:55:10.514Z,1016.36
2022-09-23T02:56:10.496Z,1016.36
2022-09-23T02:57:10.492Z,1016.35
2022-09-23T02:58:10.463Z,1016.35
2022-09-23T02:59:10.461Z,1016.35
2022-09-23T03:00:10.464Z,1016.35
2022-09-23T03:01:10.486Z,1016.35
2022-09-23T03:02:10.469Z,1016.35
2022-09-23T03:03:10.416Z,1016.34
2022-09-23T03:04:10.437Z,1016.31
2022-09-23T03:05:10.426Z,1016.30
2022-09-23T03:06:10.389Z,1016.29
2022-09-23T03:07:10.393Z,1016.28
2022-09-23T03:08:10.366Z,1016.28
2022-09-23T03:09:10.353Z,1016.27
2022-09-23T03:10:10.360Z,1016.25
2022-09-23T03:11:10.370Z,1016.23
2022-09-23T03:12:10.333Z,1016.22
2022-09-23T03:13:10.312Z,1016.21
2022-09-23T03:14:10.302Z,1016.20
2022-09-23T03:15:10.309Z,1016.20
2022-09-23T03:16:10.317Z,1016.18
2022-09-23T03:17:10.278Z,1016.17
2022-09-23T03:18:10.285Z,1016.13
2022-09-23T03:19:10.249Z,1016.11
2022-09-23T03:20:10.252Z,1016.11
2022-09-23T03:21:10.236Z,1016.10
2022-09-23T03:22:10.225Z,1016.09
2022-09-23T03:23:10.227Z,1016.08
2022-09-23T03:24:10.224Z,1016.10
2022-09-23T03:25:10.205Z,1016.07
2022-09-23T03:26:10.185Z,1016.07
2022-09-23T03:27:10.171Z,1016.06
2022-09-23T03:28:10.196Z,1016.06
2022-09-23T03:29:10.145Z,1016.06
2022-09-23T03:30:10.151Z,1016.04
2022-09-23T03:31:10.141Z,1016.04
2022-09-23T03:32:10.154Z,1016.01
2022-09-23T03:33:10.114Z,1016.01
2022-09-23T03:34:10.109Z,1016.02
2022-09-23T03:35:10.110Z,1016.01
2022-09-23T03:36:10.075Z,1016.01
2022-09-23T03:37:10.082Z,1016.01
2022-09-23T03:38:10.061Z,1016.00
2022-09-23T03:39:10.053Z,1015.99
2022-09-23T03:40:10.151Z,1015.98
2022-09-23T03:41:10.063Z,1015.97
2022-09-23T03:42:10.015Z,1015.96
2022-09-23T03:43:10.008Z,1015.95
2022-09-23T03:44:10.001Z,1015.95
2022-09-23T03:45:09.998Z,1015.95
2022-09-23T03:46:10.018Z,1015.94
2022-09-23T03:47:09.984Z,1015.93
2022-09-23T03:48:09.958Z,1015.94
2022-09-23T03:49:09.937Z,1015.94
2022-09-23T03:50:09.948Z,1015.94
2022-09-23T03:51:09.916Z,1015.94
2022-09-23T03:52:09.912Z,1015.94
2022-09-23T03:53:09.896Z,1015.93
2022-09-23T03:54:09.973Z,1015.93
2022-09-23T03:55:09.885Z,1015.93
2022-09-23T03:56:09.870Z,1015.92
2022-09-23T03:57:09.966Z,1015.92
2022-09-23T03:58:09.851Z,1015.93
2022-09-23T03:59:09.847Z,1015.93
2022-09-23T04:00:09.877Z,1015.93
2022-09-23T04:01:09.873Z,1015.92
2022-09-23T04:02:09.990Z,1015.91
2022-09-23T04:03:11.926Z,1015.89
2022-09-23T04:04:09.805Z,1015.89
2022-09-23T04:05:09.808Z,1015.88
2022-09-23T04:06:09.773Z,1015.87
2022-09-23T04:07:09.756Z,1015.87
2022-09-23T04:08:09.750Z,1015.86
2022-09-23T04:09:09.793Z,1015.85
2022-09-23T04:10:09.767Z,1015.84
2022-09-23T04:11:09.724Z,1015.82
2022-09-23T04:12:09.716Z,1015.80
2022-09-23T04:13:09.700Z,1015.79
2022-09-23T04:14:09.685Z,1015.78
2022-09-23T04:15:09.691Z,1015.78
2022-09-23T04:16:09.747Z,1015.77
2022-09-23T04:17:09.676Z,1015.76
2022-09-23T04:18:09.652Z,1015.75
2022-09-23T04:19:11.664Z,1015.74
2022-09-23T04:20:09.625Z,1015.73
2022-09-23T04:21:09.617Z,1015.72
2022-09-23T04:22:09.718Z,1015.71
2022-09-23T04:23:09.630Z,1015.72
2022-09-23T04:24:09.633Z,1015.73
2022-09-23T04:25:09.637Z,1015.73
2022-09-23T04:26:09.650Z,1015.74
2022-09-23T04:27:09.636Z,1015.73
2022-09-23T04:28:09.628Z,1015.72
2022-09-23T04:29:09.577Z,1015.72
2022-09-23T04:30:09.525Z,1015.73
2022-09-23T04:31:09.667Z,1015.73
2022-09-23T04:32:09.507Z,1015.73
2022-09-23T04:33:09.446Z,1015.73
2022-09-23T04:34:09.529Z,1015.72
2022-09-23T04:35:09.693Z,1015.72
2022-09-23T04:36:09.419Z,1015.71
2022-09-23T04:37:09.617Z,1015.71
2022-09-23T04:38:09.388Z,1015.71
2022-09-23T04:39:09.702Z,1015.70
2022-09-23T04:40:09.423Z,1015.69
2022-09-23T04:41:09.348Z,1015.69
2022-09-23T04:42:09.349Z,1015.69
2022-09-23T04:43:13.460Z,1015.69
2022-09-23T04:44:09.632Z,1015.69
2022-09-23T04:45:09.311Z,1015.69
2022-09-23T04:46:09.300Z,1015.69
2022-09-23T04:47:09.291Z,1015.68
2022-09-23T04:48:09.649Z,1015.67
2022-09-23T04:49:09.780Z,1015.66
2022-09-23T04:50:09.642Z,1015.65
2022-09-23T04:51:09.247Z,1015.65
2022-09-23T04:52:09.368Z,1015.64
2022-09-23T04:53:09.225Z,1015.64
2022-09-23T04:54:09.232Z,1015.64
2022-09-23T04:55:11.306Z,1015.64
2022-09-23T04:56:09.218Z,1015.65
2022-09-23T04:57:09.187Z,1015.65
2022-09-23T04:58:09.177Z,1015.65
2022-09-23T04:59:09.175Z,1015.66
2022-09-23T05:00:09.179Z,1015.66
2022-09-23T05:01:09.180Z,1015.66
2022-09-23T05:02:09.250Z,1015.66
2022-09-23T05:03:09.163Z,1015.66
2022-09-23T05:04:09.139Z,1015.65
2022-09-23T05:05:09.104Z,1015.65
2022-09-23T05:06:09.113Z,1015.64
2022-09-23T05:07:09.136Z,1015.64
2022-09-23T05:08:09.091Z,1015.64
2022-09-23T05:09:09.263Z,1015.63
2022-09-23T05:10:09.055Z,1015.63
2022-09-23T05:11:09.046Z,1015.63
2022-09-23T05:12:09.077Z,1015.63
2022-09-23T05:13:09.032Z,1015.64
2022-09-23T05:14:09.107Z,1015.64
2022-09-23T05:15:09.011Z,1015.64
2022-09-23T05:16:09.042Z,1015.63
2022-09-23T05:17:09.025Z,1015.63
2022-09-23T05:18:09.031Z,1015.64
2022-09-23T05:19:09.022Z,1015.65
2022-09-23T05:20:08.968Z,1015.65
2022-09-23T05:21:08.989Z,1015.65
2022-09-23T05:22:08.937Z,1015.65
2022-09-23T05:23:09.063Z,1015.66
2022-09-23T05:24:08.924Z,1015.65
2022-09-23T05:25:08.928Z,1015.65
2022-09-23T05:26:08.888Z,1015.66
2022-09-23T05:27:09.026Z,1015.66
2022-09-23T05:28:08.951Z,1015.65
2022-09-23T05:29:09.080Z,1015.64
2022-09-23T05:30:08.985Z,1015.63
2022-09-23T05:31:08.929Z,1015.62
2022-09-23T05:32:08.875Z,1015.62
2022-09-23T05:33:09.009Z,1015.61
2022-09-23T05:34:09.021Z,1015.61
2022-09-23T05:35:09.132Z,1015.61
2022-09-23T05:36:08.804Z,1015.60
2022-09-23T05:37:08.810Z,1015.60
2022-09-23T05:38:08.801Z,1015.59
2022-09-23T05:39:09.217Z,1015.59
2022-09-23T05:40:08.926Z,1015.58
2022-09-23T05:41:08.739Z,1015.57
2022-09-23T05:42:08.879Z,1015.57
2022-09-23T05:43:08.733Z,1015.57
2022-09-23T05:44:08.758Z,1015.57
2022-09-23T05:45:08.915Z,1015.57
2022-09-23T05:46:08.720Z,1015.57
2022-09-23T05:47:08.718Z,1015.58
2022-09-23T05:48:08.693Z,1015.58
2022-09-23T05:49:08.793Z,1015.57
2022-09-23T05:50:08.696Z,1015.57
2022-09-23T05:51:08.650Z,1015.57
2022-09-23T05:52:08.626Z,1015.56
2022-09-23T05:53:08.615Z,1015.56
2022-09-23T05:54:08.773Z,1015.54
2022-09-23T05:55:08.609Z,1015.54
2022-09-23T05:56:08.584Z,1015.54
2022-09-23T05:57:08.747Z,1015.54
2022-09-23T05:58:08.570Z,1015.56
2022-09-23T05:59:08.702Z,1015.57
2022-09-23T06:00:08.562Z,1015.58
2022-09-23T06:01:08.619Z,1015.58
2022-09-23T06:02:08.597Z,1015.59
2022-09-23T06:03:08.585Z,1015.59
2022-09-23T06:04:08.653Z,1015.58
2022-09-23T06:05:08.503Z,1015.57
2022-09-23T06:06:08.483Z,1015.57
2022-09-23T06:07:08.467Z,1015.58
2022-09-23T06:08:08.482Z,1015.59
2022-09-23T06:09:08.647Z,1015.60
2022-09-23T06:10:08.449Z,1015.61
2022-09-23T06:11:08.468Z,1015.62
2022-09-23T06:12:08.422Z,1015.63
2022-09-23T06:13:08.426Z,1015.64
2022-09-23T06:14:08.427Z,1015.65
2022-09-23T06:15:08.382Z,1015.65
2022-09-23T06:16:08.463Z,1015.65
2022-09-23T06:17:08.374Z,1015.64
2022-09-23T06:18:08.383Z,1015.63
2022-09-23T06:19:08.362Z,1015.63
2022-09-23T06:20:08.344Z,1015.63
2022-09-23T06:21:08.321Z,1015.63
2022-09-23T06:22:08.319Z,1015.63
2022-09-23T06:23:10.354Z,1015.63
2022-09-23T06:24:08.479Z,1015.63
2022-09-23T06:25:08.287Z,1015.64
2022-09-23T06:26:08.306Z,1015.63
2022-09-23T06:27:08.290Z,1015.63
2022-09-23T06:28:08.280Z,1015.61
2022-09-23T06:29:08.254Z,1015.60
2022-09-23T06:30:08.260Z,1015.59
2022-09-23T06:31:12.927Z,1015.59
2022-09-23T06:32:08.248Z,1015.59
2022-09-23T06:33:08.201Z,1015.59
2022-09-23T06:34:12.133Z,1015.60
2022-09-23T06:35:19.100Z,1015.61
2022-09-23T06:36:08.185Z,1015.61
2022-09-23T06:37:18.308Z,1015.60
2022-09-23T06:38:08.157Z,1015.60
2022-09-23T06:39:08.154Z,1015.62
2022-09-23T06:40:08.180Z,1015.61
2022-09-23T06:41:08.140Z,1015.61
2022-09-23T06:42:08.112Z,1015.61
2022-09-23T06:43:08.099Z,1015.60
2022-09-23T06:44:08.179Z,1015.60
2022-09-23T06:45:08.071Z,1015.60
2022-09-23T06:46:08.231Z,1015.60
2022-09-23T06:47:08.097Z,1015.59
2022-09-23T06:48:08.052Z,1015.58
2022-09-23T06:49:08.038Z,1015.58
2022-09-23T06:50:08.046Z,1015.57
2022-09-23T06:51:08.012Z,1015.57
2022-09-23T06:52:08.017Z,1015.57
2022-09-23T06:53:07.995Z,1015.57
2022-09-23T06:54:08.148Z,1015.57
2022-09-23T06:55:07.968Z,1015.57
2022-09-23T06:56:07.963Z,1015.59
2022-09-23T06:57:07.947Z,1015.60
2022-09-23T06:58:07.950Z,1015.61
2022-09-23T06:59:07.953Z,1015.62
2022-09-23T07:00:07.961Z,1015.63
2022-09-23T07:01:07.909Z,1015.63
2022-09-23T07:02:08.014Z,1015.63
2022-09-23T07:03:07.939Z,1015.63
2022-09-23T07:04:08.109Z,1015.64
2022-09-23T07:05:07.872Z,1015.64
2022-09-23T07:06:07.886Z,1015.65
2022-09-23T07:07:07.847Z,1015.66
2022-09-23T07:08:07.903Z,1015.67
2022-09-23T07:09:07.829Z,1015.67
2022-09-23T07:10:07.884Z,1015.67
2022-09-23T07:11:07.813Z,1015.68
2022-09-23T07:12:07.795Z,1015.67
2022-09-23T07:13:07.780Z,1015.66
2022-09-23T07:14:07.797Z,1015.63
2022-09-23T07:15:07.771Z,1015.61
2022-09-23T07:16:07.807Z,1015.61
2022-09-23T07:17:07.757Z,1015.62
2022-09-23T07:18:07.836Z,1015.63
2022-09-23T07:19:07.829Z,1015.64
2022-09-23T07:20:07.736Z,1015.65
2022-09-23T07:21:07.698Z,1015.65
2022-09-23T07:22:07.691Z,1015.65
2022-09-23T07:23:07.717Z,1015.66
2022-09-23T07:24:07.681Z,1015.65
2022-09-23T07:25:07.683Z,1015.69
2022-09-23T07:26:07.696Z,1015.69
2022-09-23T07:27:07.642Z,1015.70
2022-09-23T07:28:07.792Z,1015.71
2022-09-23T07:29:07.631Z,1015.71
2022-09-23T07:30:15.268Z,1015.72
2022-09-23T07:31:07.751Z,1015.71
2022-09-23T07:32:13.733Z,1015.70
2022-09-23T07:33:21.996Z,1015.69
2022-09-23T07:34:07.667Z,1015.68
2022-09-23T07:35:07.672Z,1015.67
2022-09-23T07:36:07.661Z,1015.65
2022-09-23T07:37:07.630Z,1015.63
2022-09-23T07:38:07.604Z,1015.61
2022-09-23T07:39:07.538Z,1015.59
2022-09-23T07:40:07.565Z,1015.58
2022-09-23T07:41:07.498Z,1015.57
2022-09-23T07:42:07.496Z,1015.56
2022-09-23T07:43:07.481Z,1015.56
2022-09-23T07:44:07.498Z,1015.54
2022-09-23T07:45:07.668Z,1015.54
2022-09-23T07:46:07.625Z,1015.52
2022-09-23T07:47:07.429Z,1015.51
2022-09-23T07:48:07.646Z,1015.51
2022-09-23T07:49:07.839Z,1015.51
2022-09-23T07:50:07.662Z,1015.53
2022-09-23T07:51:07.717Z,1015.54
2022-09-23T07:52:07.388Z,1015.54
2022-09-23T07:53:07.383Z,1015.54
2022-09-23T07:54:07.429Z,1015.52
2022-09-23T07:55:07.352Z,1015.54
2022-09-23T07:56:07.560Z,1015.54
2022-09-23T07:57:07.325Z,1015.52
2022-09-23T07:58:07.350Z,1015.53
2022-09-23T07:59:07.398Z,1015.51
2022-09-23T08:00:07.634Z,1015.51
2022-09-23T08:01:07.387Z,1015.50
2022-09-23T08:02:07.284Z,1015.51
2022-09-23T08:03:07.531Z,1015.51
2022-09-23T08:04:07.554Z,1015.51
2022-09-23T08:05:07.245Z,1015.51
2022-09-23T08:06:07.529Z,1015.51
2022-09-23T08:07:07.452Z,1015.51
2022-09-23T08:08:07.211Z,1015.49
2022-09-23T08:09:07.353Z,1015.47
2022-09-23T08:10:07.192Z,1015.47
2022-09-23T08:11:07.188Z,1015.48
2022-09-23T08:12:07.181Z,1015.48
2022-09-23T08:13:07.161Z,1015.46
2022-09-23T08:14:07.174Z,1015.48
2022-09-23T08:15:07.178Z,1015.47
2022-09-23T08:16:07.206Z,1015.46
2022-09-23T08:17:07.141Z,1015.44
2022-09-23T08:18:07.106Z,1015.42
2022-09-23T08:19:07.155Z,1015.40
2022-09-23T08:20:07.093Z,1015.41
2022-09-23T08:21:07.153Z,1015.40
2022-09-23T08:22:07.079Z,1015.41
2022-09-23T08:23:07.099Z,1015.40
2022-09-23T08:24:07.155Z,1015.41
2022-09-23T08:25:09.546Z,1015.44
2022-09-23T08:26:12.353Z,1015.44
2022-09-23T08:27:07.111Z,1015.45
2022-09-23T08:28:07.053Z,1015.48
2022-09-23T08:29:07.008Z,1015.52
2022-09-23T08:30:06.987Z,1015.54
2022-09-23T08:31:07.031Z,1015.55
2022-09-23T08:32:06.989Z,1015.56
2022-09-23T08:33:07.022Z,1015.57
2022-09-23T08:34:07.030Z,1015.56
2022-09-23T08:35:07.010Z,1015.55
2022-09-23T08:36:06.944Z,1015.54
2022-09-23T08:37:07.009Z,1015.55
2022-09-23T08:38:06.913Z,1015.55
2022-09-23T08:39:06.905Z,1015.55
2022-09-23T08:40:06.956Z,1015.54
2022-09-23T08:41:06.932Z,1015.54
2022-09-23T08:42:07.772Z,1015.53
2022-09-23T08:43:06.923Z,1015.53
2022-09-23T08:44:06.891Z,1015.53
2022-09-23T08:45:07.004Z,1015.52
2022-09-23T08:46:06.947Z,1015.53
2022-09-23T08:47:07.799Z,1015.52
2022-09-23T08:48:12.718Z,1015.51
2022-09-23T08:49:06.818Z,1015.50
2022-09-23T08:50:06.840Z,1015.49
2022-09-23T08:51:06.780Z,1015.45
2022-09-23T08:52:07.272Z,1015.44
2022-09-23T08:53:07.661Z,1015.42
2022-09-23T08:54:07.806Z,1015.43
2022-09-23T08:55:06.735Z,1015.40
2022-09-23T08:56:06.758Z,1015.38
2022-09-23T08:57:06.707Z,1015.36
2022-09-23T08:59:06.716Z,1015.34
2022-09-23T09:00:06.871Z,1015.34
2022-09-23T09:01:06.692Z,1015.33
2022-09-23T09:02:06.679Z,1015.32
2022-09-23T09:03:06.661Z,1015.32
2022-09-23T09:04:10.636Z,1015.33
2022-09-23T09:05:06.810Z,1015.33
2022-09-23T09:06:06.618Z,1015.32
2022-09-23T09:07:31.859Z,1015.32
2022-09-23T09:08:06.597Z,1015.31
2022-09-23T09:09:06.793Z,1015.32
2022-09-23T09:10:06.581Z,1015.31
2022-09-23T09:11:06.643Z,1015.30
2022-09-23T09:12:06.595Z,1015.30
2022-09-23T09:13:06.686Z,1015.31
2022-09-23T09:14:06.585Z,1015.29
2022-09-23T09:15:06.534Z,1015.30
2022-09-23T09:16:06.537Z,1015.30
2022-09-23T09:17:06.503Z,1015.29
2022-09-23T09:18:06.503Z,1015.28
2022-09-23T09:19:06.677Z,1015.28
2022-09-23T09:20:06.469Z,1015.26
2022-09-23T09:21:06.468Z,1015.25
2022-09-23T09:22:06.446Z,1015.25
2022-09-23T09:23:06.439Z,1015.26
2022-09-23T09:24:06.509Z,1015.25
2022-09-23T09:25:06.427Z,1015.26
2022-09-23T09:26:06.430Z,1015.27
2022-09-23T09:27:06.411Z,1015.24
2022-09-23T09:28:06.387Z,1015.21
2022-09-23T09:29:30.747Z,1015.20
2022-09-23T09:30:06.373Z,1015.20
2022-09-23T09:31:06.423Z,1015.19
2022-09-23T09:32:06.352Z,1015.19
2022-09-23T09:33:06.362Z,1015.18
2022-09-23T09:34:06.348Z,1015.19
2022-09-23T09:35:06.348Z,1015.19
2022-09-23T09:36:06.400Z,1015.18
2022-09-23T09:37:07.463Z,1015.18
2022-09-23T09:38:06.281Z,1015.17
2022-09-23T09:39:06.358Z,1015.14
2022-09-23T09:40:06.270Z,1015.16
2022-09-23T09:41:06.252Z,1015.16
2022-09-23T09:42:06.243Z,1015.13
2022-09-23T09:43:06.232Z,1015.12
2022-09-23T09:44:06.428Z,1015.10
2022-09-23T09:45:06.233Z,1015.08
2022-09-23T09:46:06.204Z,1015.05
2022-09-23T09:47:06.212Z,1015.02
2022-09-23T09:48:06.223Z,1015.01
2022-09-23T09:49:06.369Z,1014.99
2022-09-23T09:50:06.163Z,1014.96
2022-09-23T09:51:06.144Z,1014.95
2022-09-23T09:52:06.131Z,1014.95
2022-09-23T09:53:06.077Z,1014.93
2022-09-23T09:54:06.079Z,1014.91
2022-09-23T09:55:06.067Z,1014.91
2022-09-23T09:56:06.166Z,1014.88
2022-09-23T09:57:06.026Z,1014.88
2022-09-23T09:58:06.031Z,1014.86
2022-09-23T09:59:06.210Z,1014.85
2022-09-23T10:00:06.010Z,1014.85
2022-09-23T10:01:06.024Z,1014.85
2022-09-23T10:02:05.970Z,1014.84
2022-09-23T10:03:05.964Z,1014.82
2022-09-23T10:04:06.038Z,1014.79
2022-09-23T10:05:05.946Z,1014.78
2022-09-23T10:06:05.943Z,1014.75
2022-09-23T10:07:05.925Z,1014.74
2022-09-23T10:08:05.934Z,1014.72
2022-09-23T10:09:05.967Z,1014.69
2022-09-23T10:10:21.850Z,1014.69
2022-09-23T10:11:05.891Z,1014.66
2022-09-23T10:12:05.872Z,1014.62
2022-09-23T10:13:05.864Z,1014.60
2022-09-23T10:14:05.934Z,1014.59
2022-09-23T10:15:05.854Z,1014.59
2022-09-23T10:16:05.821Z,1014.61
2022-09-23T10:17:05.922Z,1014.66
2022-09-23T10:18:05.913Z,1014.64
2022-09-23T10:19:05.955Z,1014.63
2022-09-23T10:20:05.777Z,1014.65
2022-09-23T10:21:05.783Z,1014.63
2022-09-23T10:22:05.761Z,1014.61
2022-09-23T10:23:05.754Z,1014.60
2022-09-23T10:24:05.762Z,1014.60
2022-09-23T10:25:05.765Z,1014.59
2022-09-23T10:26:05.716Z,1014.59
2022-09-23T10:27:05.711Z,1014.56
2022-09-23T10:28:08.030Z,1014.56
2022-09-23T10:29:05.815Z,1014.59
2022-09-23T10:30:05.674Z,1014.53
2022-09-23T10:31:05.755Z,1014.55
2022-09-23T10:32:05.658Z,1014.55
2022-09-23T10:33:05.648Z,1014.57
2022-09-23T10:34:05.686Z,1014.57
2022-09-23T10:35:05.637Z,1014.55
2022-09-23T10:36:05.644Z,1014.55
2022-09-23T10:37:05.660Z,1014.53
2022-09-23T10:38:05.605Z,1014.53
2022-09-23T10:39:05.694Z,1014.55
2022-09-23T10:40:05.622Z,1014.56
2022-09-23T10:41:05.724Z,1014.57
2022-09-23T10:42:05.607Z,1014.57
2022-09-23T10:43:05.566Z,1014.54
2022-09-23T10:44:05.569Z,1014.56
2022-09-23T10:45:05.543Z,1014.58
2022-09-23T10:46:05.586Z,1014.57
2022-09-23T10:47:05.596Z,1014.56
2022-09-23T10:48:05.531Z,1014.57
2022-09-23T10:49:05.498Z,1014.56
2022-09-23T10:50:05.486Z,1014.57
2022-09-23T10:51:05.592Z,1014.55
2022-09-23T10:52:05.573Z,1014.57
2022-09-23T10:53:05.467Z,1014.55
2022-09-23T10:54:05.523Z,1014.56
2022-09-23T10:55:05.625Z,1014.55
2022-09-23T10:56:05.435Z,1014.54
2022-09-23T10:57:05.707Z,1014.51
2022-09-23T10:58:05.627Z,1014.50
2022-09-23T10:59:05.754Z,1014.48
2022-09-23T11:00:05.419Z,1014.46
2022-09-23T11:01:05.639Z,1014.45
2022-09-23T11:02:05.365Z,1014.42
2022-09-23T11:03:05.482Z,1014.41
2022-09-23T11:04:06.185Z,1014.41
2022-09-23T11:05:05.386Z,1014.41
2022-09-23T11:06:05.325Z,1014.44
2022-09-23T11:07:05.584Z,1014.42
2022-09-23T11:08:05.617Z,1014.40
2022-09-23T11:09:05.400Z,1014.39
2022-09-23T11:10:11.359Z,1014.38
2022-09-23T11:11:05.291Z,1014.35
2022-09-23T11:12:05.606Z,1014.37
2022-09-23T11:13:05.268Z,1014.34
2022-09-23T11:14:05.804Z,1014.32
2022-09-23T11:15:05.241Z,1014.31
2022-09-23T11:16:05.439Z,1014.31
2022-09-23T11:17:05.678Z,1014.29
2022-09-23T11:18:05.532Z,1014.27
2022-09-23T11:19:05.194Z,1014.25
2022-09-23T11:20:05.209Z,1014.24
2022-09-23T11:21:05.190Z,1014.23
2022-09-23T11:22:05.175Z,1014.22
2022-09-23T11:23:05.363Z,1014.23
2022-09-23T11:24:05.148Z,1014.21
2022-09-23T11:25:05.137Z,1014.21
2022-09-23T11:26:05.124Z,1014.20
2022-09-23T11:27:05.135Z,1014.17
2022-09-23T11:28:05.114Z,1014.15
2022-09-23T11:29:05.121Z,1014.14
2022-09-23T11:30:05.096Z,1014.14
2022-09-23T11:31:05.114Z,1014.11
2022-09-23T11:32:05.065Z,1014.10
2022-09-23T11:33:05.091Z,1014.07
2022-09-23T11:34:05.159Z,1014.05
2022-09-23T11:35:05.036Z,1014.03
2022-09-23T11:36:05.028Z,1014.05
2022-09-23T11:37:05.047Z,1014.04
2022-09-23T11:38:05.303Z,1014.03
2022-09-23T11:39:04.997Z,1014.00
2022-09-23T11:40:05.075Z,1013.97
2022-09-23T11:41:05.044Z,1013.94
2022-09-23T11:42:05.061Z,1013.91
2022-09-23T11:43:05.122Z,1013.91
2022-09-23T11:44:04.987Z,1013.90
2022-09-23T11:45:04.936Z,1013.88
2022-09-23T11:46:05.069Z,1013.87
2022-09-23T11:47:04.917Z,1013.83
2022-09-23T11:48:05.107Z,1013.82
2022-09-23T11:49:04.891Z,1013.79
2022-09-23T11:50:04.938Z,1013.78
2022-09-23T11:51:04.913Z,1013.78
2022-09-23T11:52:04.898Z,1013.77
2022-09-23T11:53:04.988Z,1013.77
2022-09-23T11:54:04.835Z,1013.77
2022-09-23T11:55:16.932Z,1013.76
2022-09-23T11:56:04.898Z,1013.75
2022-09-23T11:57:04.818Z,1013.75
2022-09-23T11:58:07.108Z,1013.73
2022-09-23T11:59:05.169Z,1013.72
2022-09-23T12:00:04.796Z,1013.73
2022-09-23T12:01:05.600Z,1013.71
2022-09-23T12:02:16.200Z,1013.69
2022-09-23T12:03:06.431Z,1013.69
2022-09-23T12:04:14.256Z,1013.68
2022-09-23T12:05:05.114Z,1013.67
2022-09-23T12:06:04.753Z,1013.66